createdAt,value
2019-01-11T00:01:37.168Z,16.10
2019-01-11T00:04:05.790Z,16.17
2019-01-11T00:06:34.184Z,16.73
2019-01-11T00:09:02.776Z,16.07
2019-01-11T00:11:31.175Z,16.70
2019-01-11T00:13:59.576Z,16.47
2019-01-11T00:16:27.990Z,16.70
2019-01-11T00:18:56.398Z,17.00
2019-01-11T00:21:24.804Z,16.73
2019-01-11T00:23:53.209Z,16.33
2019-01-11T00:26:21.623Z,16.70
2019-01-11T00:28:50.043Z,17.00
2019-01-11T00:31:18.466Z,16.87
2019-01-11T00:33:46.926Z,17.20
2019-01-11T00:36:15.353Z,17.33
2019-01-11T00:38:43.744Z,18.73
2019-01-11T00:41:12.209Z,18.03
2019-01-11T00:43:40.613Z,18.47
2019-01-11T00:46:09.031Z,17.83
2019-01-11T00:48:37.432Z,18.73
2019-01-11T00:51:05.896Z,18.77
2019-01-11T00:53:34.292Z,19.93
2019-01-11T00:56:02.759Z,21.00
2019-01-11T00:58:31.160Z,20.27
2019-01-11T01:00:59.628Z,21.37
2019-01-11T01:03:28.027Z,21.40
2019-01-11T01:05:56.510Z,20.60
2019-01-11T01:08:30.428Z,20.57
2019-01-11T01:10:55.130Z,20.37
2019-01-11T01:13:23.545Z,20.37
2019-01-11T01:15:51.959Z,19.30
2019-01-11T01:18:21.635Z,19.07
2019-01-11T01:20:50.067Z,17.10
2019-01-11T01:23:18.728Z,16.50
2019-01-11T01:25:47.137Z,15.40
2019-01-11T01:28:15.604Z,14.43
2019-01-11T01:30:44.151Z,13.73
2019-01-11T01:33:12.630Z,13.33
2019-01-11T01:35:41.025Z,12.37
2019-01-11T01:38:09.445Z,12.77
2019-01-11T01:40:37.846Z,12.80
2019-01-11T01:43:06.352Z,12.10
2019-01-11T01:45:35.034Z,13.10
2019-01-11T01:48:03.579Z,12.87
2019-01-11T01:50:31.988Z,12.50
2019-01-11T01:53:00.416Z,12.60
2019-01-11T01:55:28.814Z,12.80
2019-01-11T01:57:57.984Z,11.50
2019-01-11T02:00:26.600Z,12.07
2019-01-11T02:02:55.000Z,12.43
2019-01-11T02:05:23.404Z,12.20
2019-01-11T02:07:51.820Z,12.27
2019-01-11T02:10:20.952Z,11.53
2019-01-11T02:12:49.366Z,10.30
2019-01-11T02:15:17.933Z,10.43
2019-01-11T02:17:46.341Z,10.57
2019-01-11T02:20:16.851Z,10.07
2019-01-11T02:22:45.616Z,9.93
2019-01-11T02:25:14.336Z,10.83
2019-01-11T02:27:42.900Z,11.07
2019-01-11T02:30:14.610Z,10.43
2019-01-11T02:32:43.023Z,11.17
2019-01-11T02:35:11.527Z,10.67
2019-01-11T02:37:39.917Z,11.13
2019-01-11T02:40:10.367Z,11.87
2019-01-11T02:42:38.827Z,10.77
2019-01-11T02:45:10.581Z,11.63
2019-01-11T02:47:38.987Z,10.97
2019-01-11T02:50:09.531Z,11.73
2019-01-11T02:52:37.934Z,11.40
2019-01-11T02:55:07.786Z,12.63
2019-01-11T02:57:36.182Z,10.90
2019-01-11T03:00:16.199Z,12.67
2019-01-11T03:02:44.597Z,12.23
2019-01-11T03:05:14.524Z,12.33
2019-01-11T03:07:43.279Z,11.67
2019-01-11T03:10:15.084Z,11.50
2019-01-11T03:12:43.479Z,11.93
2019-01-11T03:15:12.539Z,11.60
2019-01-11T03:17:40.978Z,12.63
2019-01-11T03:20:11.791Z,11.80
2019-01-11T03:22:40.196Z,11.80
2019-01-11T03:25:10.967Z,11.73
2019-01-11T03:27:39.347Z,11.97
2019-01-11T03:30:13.773Z,12.07
2019-01-11T03:32:42.177Z,11.27
2019-01-11T03:35:12.339Z,11.57
2019-01-11T03:37:40.736Z,11.33
2019-01-11T03:40:12.089Z,11.53
2019-01-11T03:42:40.504Z,10.40
2019-01-11T03:45:11.561Z,10.73
2019-01-11T03:47:39.996Z,10.53
2019-01-11T03:50:11.070Z,10.90
2019-01-11T03:52:39.531Z,11.03
2019-01-11T03:55:10.595Z,10.30
2019-01-11T03:57:39.005Z,10.43
2019-01-11T04:00:10.619Z,10.20
2019-01-11T04:02:39.204Z,10.13
2019-01-11T04:05:09.345Z,10.03
2019-01-11T04:07:37.755Z,10.53
2019-01-11T04:10:17.596Z,10.27
2019-01-11T04:12:46.083Z,10.00
2019-01-11T04:15:17.288Z,10.57
2019-01-11T04:17:47.421Z,10.97
2019-01-11T04:20:19.430Z,11.10
2019-01-11T04:22:49.535Z,10.23
2019-01-11T04:25:22.332Z,10.43
2019-01-11T04:27:51.346Z,10.97
2019-01-11T04:30:21.132Z,10.20
2019-01-11T04:32:49.707Z,10.90
2019-01-11T04:35:18.437Z,11.77
2019-01-11T04:37:46.967Z,11.20
2019-01-11T04:40:15.687Z,11.33
2019-01-11T04:42:44.082Z,11.33
2019-01-11T04:45:12.704Z,11.03
2019-01-11T04:47:41.249Z,11.30
2019-01-11T04:50:12.101Z,11.37
2019-01-11T04:52:40.483Z,11.80
2019-01-11T04:55:09.076Z,11.67
2019-01-11T04:57:37.545Z,12.33
2019-01-11T05:00:20.179Z,12.33
2019-01-11T05:02:48.569Z,12.33
2019-01-11T05:05:17.177Z,12.40
2019-01-11T05:07:45.590Z,12.90
2019-01-11T05:10:16.123Z,12.60
2019-01-11T05:12:44.529Z,13.77
2019-01-11T05:15:13.103Z,12.27
2019-01-11T05:17:41.509Z,11.70
2019-01-11T05:20:16.634Z,13.03
2019-01-11T05:22:42.383Z,13.27
2019-01-11T05:25:11.113Z,13.27
2019-01-11T05:27:39.511Z,13.57
2019-01-11T05:30:11.344Z,12.23
2019-01-11T05:32:39.753Z,12.43
2019-01-11T05:35:08.608Z,11.57
2019-01-11T05:37:37.894Z,12.43
2019-01-11T05:40:37.000Z,11.63
2019-01-11T05:43:05.396Z,12.07
2019-01-11T05:45:33.801Z,12.50
2019-01-11T05:48:02.207Z,12.87
2019-01-11T05:50:30.613Z,12.30
2019-01-11T05:52:59.010Z,11.90
2019-01-11T05:55:46.822Z,13.57
2019-01-11T05:58:23.070Z,13.53
2019-01-11T06:00:51.472Z,13.43
2019-01-11T06:03:19.944Z,13.77
2019-01-11T06:05:48.339Z,14.87
2019-01-11T06:08:17.808Z,15.10
2019-01-11T06:10:46.208Z,14.93
2019-01-11T06:13:14.604Z,15.57
2019-01-11T06:15:43.256Z,15.43
2019-01-11T06:18:11.656Z,15.60
2019-01-11T06:20:40.058Z,16.67
2019-01-11T06:23:08.622Z,16.63
2019-01-11T06:25:37.023Z,16.80
2019-01-11T06:28:05.419Z,16.53
2019-01-11T06:30:33.823Z,15.97
2019-01-11T06:33:02.224Z,16.93
2019-01-11T06:35:30.630Z,16.90
2019-01-11T06:37:59.069Z,17.10
2019-01-11T06:40:27.467Z,17.97
2019-01-11T06:42:55.868Z,18.67
2019-01-11T06:45:24.302Z,18.03
2019-01-11T06:47:52.701Z,18.17
2019-01-11T06:50:21.096Z,19.00
2019-01-11T06:52:49.505Z,18.03
2019-01-11T06:55:17.908Z,18.53
2019-01-11T06:57:46.474Z,18.43
2019-01-11T07:00:19.081Z,18.83
2019-01-11T07:02:47.542Z,19.23
2019-01-11T07:05:15.944Z,18.23
2019-01-11T07:07:46.667Z,19.77
2019-01-11T07:10:22.526Z,19.13
2019-01-11T07:12:50.932Z,19.30
2019-01-11T07:15:19.319Z,21.47
2019-01-11T07:17:47.715Z,19.90
2019-01-11T07:20:16.361Z,20.37
2019-01-11T07:22:44.829Z,19.47
2019-01-11T07:25:14.768Z,21.67
2019-01-11T07:27:44.885Z,20.87
2019-01-11T07:30:14.933Z,20.53
2019-01-11T07:32:43.409Z,19.13
2019-01-11T07:35:12.465Z,18.87
2019-01-11T07:37:40.854Z,19.63
2019-01-11T07:40:11.910Z,19.40
2019-01-11T07:42:40.388Z,18.83
2019-01-11T07:45:13.088Z,19.63
2019-01-11T07:47:41.587Z,19.03
2019-01-11T07:50:10.657Z,21.60
2019-01-11T07:52:40.174Z,21.67
2019-01-11T07:55:09.780Z,19.23
2019-01-11T07:57:38.308Z,21.17
2019-01-11T08:00:11.713Z,19.60
2019-01-11T08:02:40.852Z,21.83
2019-01-11T08:05:09.392Z,21.10
2019-01-11T08:07:37.883Z,19.63
2019-01-11T08:10:11.979Z,19.57
2019-01-11T08:12:40.450Z,20.60
2019-01-11T08:15:11.561Z,20.50
2019-01-11T08:17:39.986Z,19.40
2019-01-11T08:20:09.631Z,19.77
2019-01-11T08:22:39.689Z,20.27
2019-01-11T08:25:08.554Z,19.63
2019-01-11T08:27:36.971Z,20.77
2019-01-11T08:30:08.452Z,19.67
2019-01-11T08:32:36.864Z,19.53
2019-01-11T08:35:09.271Z,20.77
2019-01-11T08:37:38.138Z,20.27
2019-01-11T08:40:09.304Z,20.27
2019-01-11T08:42:37.704Z,20.43
2019-01-11T08:45:09.693Z,20.23
2019-01-11T08:47:38.095Z,19.10
2019-01-11T08:50:12.059Z,20.03
2019-01-11T08:52:40.547Z,19.83
2019-01-11T08:55:09.127Z,19.87
2019-01-11T08:57:37.621Z,19.90
2019-01-11T09:00:09.275Z,19.33
2019-01-11T09:02:37.698Z,18.67
2019-01-11T09:05:06.488Z,19.33
2019-01-11T09:07:34.898Z,19.70
2019-01-11T09:10:05.081Z,21.67
2019-01-11T09:12:33.508Z,20.87
2019-01-11T09:15:02.036Z,21.70
2019-01-11T09:17:31.006Z,21.33
2019-01-11T09:19:59.443Z,20.77
2019-01-11T09:22:27.871Z,22.40
2019-01-11T09:24:56.311Z,21.87
2019-01-11T09:27:24.713Z,22.03
2019-01-11T09:29:53.120Z,21.40
2019-01-11T09:32:21.550Z,22.47
2019-01-11T09:34:53.190Z,22.17
2019-01-11T09:37:21.566Z,22.23
2019-01-11T09:39:49.969Z,22.40
2019-01-11T09:42:18.418Z,22.00
2019-01-11T09:44:46.845Z,23.40
2019-01-11T09:47:15.403Z,24.13
2019-01-11T09:49:43.851Z,23.47
2019-01-11T09:52:12.290Z,25.70
2019-01-11T09:54:40.695Z,25.43
2019-01-11T09:57:09.141Z,24.70
2019-01-11T09:59:37.589Z,24.40
2019-01-11T10:02:07.680Z,25.37
2019-01-11T10:04:37.715Z,25.40
2019-01-11T10:07:07.772Z,25.63
2019-01-11T10:09:36.264Z,24.70
2019-01-11T10:12:04.756Z,25.37
2019-01-11T10:14:33.441Z,24.37
2019-01-11T10:17:01.848Z,23.77
2019-01-11T10:19:30.279Z,23.17
2019-01-11T10:21:58.695Z,23.93
2019-01-11T10:24:27.100Z,24.30
2019-01-11T10:26:55.503Z,25.20
2019-01-11T10:29:23.936Z,25.10
2019-01-11T10:31:52.358Z,23.80
2019-01-11T10:34:20.790Z,25.70
2019-01-11T10:36:49.244Z,23.40
2019-01-11T10:39:17.628Z,24.60
2019-01-11T10:41:46.039Z,25.23
2019-01-11T10:44:14.484Z,24.13
2019-01-11T10:46:49.021Z,24.60
2019-01-11T10:49:13.916Z,25.00
2019-01-11T10:51:42.344Z,25.07
2019-01-11T10:54:12.397Z,25.27
2019-01-11T10:56:40.805Z,25.80
2019-01-11T10:59:09.212Z,25.27
2019-01-11T11:01:37.604Z,25.37
2019-01-11T11:04:06.152Z,26.70
2019-01-11T11:06:34.588Z,26.37
2019-01-11T11:09:04.373Z,26.20
2019-01-11T11:11:32.776Z,26.83
2019-01-11T11:14:01.168Z,28.07
2019-01-11T11:16:32.968Z,28.47
2019-01-11T11:19:00.820Z,27.77
2019-01-11T11:21:34.641Z,27.67
2019-01-11T11:23:59.366Z,29.03
2019-01-11T11:26:27.792Z,27.20
2019-01-11T11:28:56.188Z,28.40
2019-01-11T11:31:24.596Z,28.13
2019-01-11T11:33:53.000Z,29.50
2019-01-11T11:36:21.684Z,27.13
2019-01-11T11:38:50.128Z,29.57
2019-01-11T11:41:18.541Z,29.20
2019-01-11T11:43:47.729Z,29.30
2019-01-11T11:46:16.126Z,28.03
2019-01-11T11:48:44.633Z,28.10
2019-01-11T11:51:14.596Z,29.47
2019-01-11T11:53:43.001Z,28.63
2019-01-11T11:56:12.110Z,28.50
2019-01-11T11:58:41.571Z,29.50
2019-01-11T12:01:09.992Z,28.73
2019-01-11T12:03:38.423Z,29.10
2019-01-11T12:06:07.429Z,29.70
2019-01-11T12:08:35.837Z,31.00
2019-01-11T12:11:04.306Z,30.23
2019-01-11T12:13:34.602Z,29.00
2019-01-11T12:16:05.090Z,30.40
2019-01-11T12:18:33.250Z,30.83
2019-01-11T12:21:01.675Z,31.23
2019-01-11T12:23:30.085Z,33.10
2019-01-11T12:25:58.668Z,33.03
2019-01-11T12:28:27.183Z,30.90
2019-01-11T12:30:55.599Z,33.13
2019-01-11T12:33:24.031Z,33.30
2019-01-11T12:35:52.437Z,34.20
2019-01-11T12:38:20.852Z,34.50
2019-01-11T12:40:50.626Z,32.23
2019-01-11T12:43:19.023Z,35.40
2019-01-11T12:45:47.435Z,34.10
2019-01-11T12:48:15.885Z,33.63
2019-01-11T12:50:44.273Z,34.37
2019-01-11T12:53:12.676Z,34.20
2019-01-11T12:55:41.186Z,33.67
2019-01-11T12:58:09.590Z,34.03
2019-01-11T13:00:38.108Z,31.87
2019-01-11T13:03:06.520Z,34.70
2019-01-11T13:05:35.184Z,32.57
2019-01-11T13:08:03.748Z,33.53
2019-01-11T13:10:32.157Z,33.27
2019-01-11T13:13:00.545Z,31.87
2019-01-11T13:15:29.104Z,33.07
2019-01-11T13:17:59.051Z,32.23
2019-01-11T13:20:27.452Z,32.43
2019-01-11T13:22:55.924Z,33.53
2019-01-11T13:25:24.315Z,32.60
2019-01-11T13:27:52.734Z,31.50
2019-01-11T13:30:21.191Z,31.23
2019-01-11T13:32:49.677Z,30.30
2019-01-11T13:35:18.099Z,30.30
2019-01-11T13:37:46.564Z,28.70
2019-01-11T13:40:17.776Z,28.10
2019-01-11T13:42:46.281Z,28.67
2019-01-11T13:45:14.820Z,28.33
2019-01-11T13:47:43.395Z,28.67
2019-01-11T13:50:33.011Z,28.70
2019-01-11T13:53:01.878Z,27.40
2019-01-11T13:55:30.348Z,27.13
2019-01-11T13:57:58.806Z,27.43
2019-01-11T14:00:27.292Z,26.73
2019-01-11T14:02:55.787Z,25.87
2019-01-11T14:05:24.204Z,24.93
2019-01-11T14:07:53.679Z,25.60
2019-01-11T14:10:22.075Z,24.57
2019-01-11T14:12:50.499Z,23.97
2019-01-11T14:15:18.936Z,23.27
2019-01-11T14:17:47.920Z,22.23
2019-01-11T14:20:16.343Z,21.87
2019-01-11T14:22:44.763Z,22.23
2019-01-11T14:25:13.323Z,22.20
2019-01-11T14:27:42.413Z,21.93
2019-01-11T14:30:13.921Z,20.13
2019-01-11T14:32:42.311Z,20.03
2019-01-11T14:35:10.928Z,18.93
2019-01-11T14:37:39.415Z,18.20
2019-01-11T14:40:10.902Z,18.27
2019-01-11T14:42:39.309Z,17.53
2019-01-11T14:45:10.651Z,18.17
2019-01-11T14:47:39.146Z,16.60
2019-01-11T14:50:12.741Z,16.40
2019-01-11T14:52:41.146Z,16.63
2019-01-11T14:55:09.668Z,16.47
2019-01-11T14:57:38.764Z,16.07
2019-01-11T15:00:10.495Z,13.53
2019-01-11T15:02:38.923Z,14.13
2019-01-11T15:05:09.461Z,12.73
2019-01-11T15:07:38.014Z,13.33
2019-01-11T15:10:09.620Z,12.40
2019-01-11T15:12:38.780Z,11.87
2019-01-11T15:15:08.354Z,12.33
2019-01-11T15:17:36.748Z,11.47
2019-01-11T15:20:08.273Z,10.93
2019-01-11T15:22:36.687Z,10.37
2019-01-11T15:25:07.231Z,10.20
2019-01-11T15:27:35.649Z,9.93
2019-01-11T15:30:07.260Z,9.40
2019-01-11T15:32:35.671Z,8.87
2019-01-11T15:35:05.737Z,8.50
2019-01-11T15:37:34.139Z,8.43
2019-01-11T15:40:02.703Z,8.90
2019-01-11T15:42:31.132Z,8.37
2019-01-11T15:44:59.526Z,8.40
2019-01-11T15:47:27.931Z,8.23
2019-01-11T15:49:56.352Z,8.67
2019-01-11T15:52:24.736Z,9.47
2019-01-11T15:54:53.132Z,8.60
2019-01-11T15:57:24.989Z,8.67
2019-01-11T16:00:01.326Z,10.00
2019-01-11T16:02:29.756Z,8.90
2019-01-11T16:05:00.953Z,9.27
2019-01-11T16:07:29.365Z,9.43
2019-01-11T16:09:59.151Z,9.93
2019-01-11T16:12:29.980Z,8.40
2019-01-11T16:15:22.746Z,9.20
2019-01-11T16:17:53.966Z,9.10
2019-01-11T16:20:22.443Z,8.87
2019-01-11T16:22:50.881Z,8.37
2019-01-11T16:25:19.415Z,8.80
2019-01-11T16:27:49.109Z,8.40
2019-01-11T16:30:17.920Z,7.57
2019-01-11T16:32:47.843Z,8.33
2019-01-11T16:35:16.309Z,7.60
2019-01-11T16:37:44.699Z,8.40
2019-01-11T16:40:14.125Z,8.57
2019-01-11T16:42:42.521Z,9.70
2019-01-11T16:45:13.866Z,8.60
2019-01-11T16:47:42.271Z,9.10
2019-01-11T16:50:15.812Z,8.63
2019-01-11T16:52:46.576Z,8.33
2019-01-11T16:55:14.330Z,8.43
2019-01-11T16:57:43.408Z,8.70
2019-01-11T17:00:15.149Z,9.10
2019-01-11T17:02:43.547Z,9.43
2019-01-11T17:07:41.284Z,8.43
2019-01-11T17:10:12.062Z,8.30
2019-01-11T17:12:41.846Z,8.40
2019-01-11T17:15:13.874Z,8.77
2019-01-11T17:17:42.357Z,8.33
2019-01-11T17:20:17.472Z,9.40
2019-01-11T17:22:45.892Z,9.10
2019-01-11T17:25:14.431Z,8.93
2019-01-11T17:27:42.988Z,8.50
2019-01-11T17:30:14.410Z,8.20
2019-01-11T17:32:42.960Z,7.07
2019-01-11T17:35:11.619Z,7.30
2019-01-11T17:37:40.026Z,7.17
2019-01-11T17:40:10.563Z,6.97
2019-01-11T17:42:38.959Z,6.90
2019-01-11T17:45:10.974Z,7.17
2019-01-11T17:47:39.607Z,7.90
2019-01-11T17:50:14.108Z,9.27
2019-01-11T17:52:42.661Z,10.07
2019-01-11T17:55:11.057Z,10.70
2019-01-11T17:57:39.540Z,11.67
2019-01-11T18:00:13.546Z,10.73
2019-01-11T18:02:42.049Z,9.13
2019-01-11T18:05:12.424Z,9.50
2019-01-11T18:07:41.107Z,8.90
2019-01-11T18:10:13.940Z,8.10
2019-01-11T18:12:42.662Z,7.80
2019-01-11T18:15:16.055Z,7.93
2019-01-11T18:17:44.735Z,6.97
2019-01-11T18:20:24.572Z,6.93
2019-01-11T18:22:52.974Z,7.10
2019-01-11T18:25:21.367Z,7.03
2019-01-11T18:27:49.784Z,6.33
2019-01-11T18:30:19.157Z,5.90
2019-01-11T18:32:47.622Z,6.20
2019-01-11T18:35:16.564Z,6.40
2019-01-11T18:37:45.117Z,6.37
2019-01-11T18:40:16.325Z,6.27
2019-01-11T18:42:44.760Z,6.50
2019-01-11T18:45:13.296Z,6.50
2019-01-11T18:47:41.770Z,6.40
2019-01-11T18:50:16.542Z,6.00
2019-01-11T18:52:45.072Z,6.70
2019-01-11T18:55:13.624Z,6.33
2019-01-11T18:57:42.200Z,6.30
2019-01-11T19:00:18.747Z,6.33
2019-01-11T19:02:47.511Z,7.00
2019-01-11T19:05:16.431Z,7.80
2019-01-11T19:07:46.111Z,7.30
2019-01-11T19:10:16.896Z,7.27
2019-01-11T19:12:45.288Z,7.37
2019-01-11T19:15:16.269Z,7.33
2019-01-11T19:17:44.694Z,8.10
2019-01-11T19:20:18.232Z,8.13
2019-01-11T19:22:46.651Z,8.57
2019-01-11T19:25:15.229Z,8.83
2019-01-11T19:27:43.780Z,8.70
2019-01-11T19:30:15.527Z,9.67
2019-01-11T19:32:43.961Z,10.37
2019-01-11T19:35:12.524Z,10.00
2019-01-11T19:37:40.984Z,10.23
2019-01-11T19:40:11.919Z,9.13
2019-01-11T19:42:40.392Z,8.67
2019-01-11T19:45:11.447Z,8.87
2019-01-11T19:47:40.220Z,7.60
2019-01-11T19:50:16.904Z,7.73
2019-01-11T19:52:45.941Z,7.10
2019-01-11T19:55:14.764Z,7.00
2019-01-11T19:57:43.302Z,8.33
2019-01-11T20:00:14.884Z,7.27
2019-01-11T20:02:43.358Z,7.50
2019-01-11T20:05:12.828Z,10.27
2019-01-11T20:07:41.270Z,11.20
2019-01-11T20:10:18.685Z,13.73
2019-01-11T20:12:47.082Z,15.77
2019-01-11T20:15:15.756Z,16.83
2019-01-11T20:17:44.337Z,16.73
2019-01-11T20:20:14.500Z,14.63
2019-01-11T20:22:43.030Z,15.70
2019-01-11T20:25:13.981Z,15.03
2019-01-11T20:27:42.430Z,14.07
2019-01-11T20:30:19.089Z,12.30
2019-01-11T20:32:47.663Z,10.33
2019-01-11T20:35:16.124Z,8.83
2019-01-11T20:37:44.865Z,8.27
2019-01-11T20:40:15.524Z,8.53
2019-01-11T20:42:45.524Z,8.20
2019-01-11T20:45:19.960Z,7.70
2019-01-11T20:47:48.666Z,8.83
2019-01-11T20:50:21.343Z,8.33
2019-01-11T20:52:50.089Z,8.07
2019-01-11T20:55:18.492Z,7.80
2019-01-11T20:57:47.075Z,7.03
2019-01-11T21:00:24.457Z,6.37
2019-01-11T21:02:53.596Z,6.47
2019-01-11T21:05:22.133Z,6.27
2019-01-11T21:07:50.592Z,6.43
2019-01-11T21:10:19.223Z,6.77
2019-01-11T21:12:47.781Z,6.17
2019-01-11T21:15:18.963Z,7.00
2019-01-11T21:17:47.531Z,6.13
2019-01-11T21:20:18.095Z,5.33
2019-01-11T21:22:46.720Z,6.00
2019-01-11T21:25:17.068Z,5.40
2019-01-11T21:27:45.630Z,5.70
2019-01-11T21:30:16.912Z,5.23
2019-01-11T21:32:45.555Z,5.47
2019-01-11T21:35:14.106Z,5.00
2019-01-11T21:37:42.635Z,5.37
2019-01-11T21:40:13.984Z,5.40
2019-01-11T21:42:42.465Z,5.87
2019-01-11T21:45:11.585Z,5.33
2019-01-11T21:47:40.096Z,5.30
2019-01-11T21:50:11.887Z,5.40
2019-01-11T21:52:40.344Z,5.87
2019-01-11T21:55:09.403Z,5.93
2019-01-11T21:57:37.824Z,5.70
2019-01-11T22:00:21.060Z,5.87
2019-01-11T22:02:49.457Z,6.53
2019-01-11T22:05:18.226Z,6.53
2019-01-11T22:07:46.697Z,6.33
2019-01-11T22:10:16.634Z,7.13
2019-01-11T22:12:45.115Z,7.27
2019-01-11T22:15:16.341Z,6.93
2019-01-11T22:17:44.874Z,6.43
2019-01-11T22:20:15.705Z,7.00
2019-01-11T22:22:44.188Z,6.37
2019-01-11T22:25:14.829Z,6.10
2019-01-11T22:27:43.229Z,5.53
2019-01-11T22:30:30.097Z,5.20
2019-01-11T22:32:55.528Z,4.67
2019-01-11T22:35:23.990Z,4.73
2019-01-11T22:37:52.433Z,4.77
2019-01-11T22:40:23.083Z,4.90
2019-01-11T22:42:53.806Z,4.87
2019-01-11T22:45:22.280Z,5.50
2019-01-11T22:47:50.664Z,5.43
2019-01-11T22:50:19.056Z,5.60
2019-01-11T22:52:47.519Z,5.80
2019-01-11T22:55:18.234Z,6.20
2019-01-11T22:57:46.702Z,5.60
2019-01-11T23:00:38.181Z,5.80
2019-01-11T23:03:19.270Z,5.47
2019-01-11T23:05:48.696Z,5.53
2019-01-11T23:08:18.631Z,5.87
2019-01-11T23:10:53.034Z,6.00
2019-01-11T23:13:21.441Z,6.30
2019-01-11T23:15:50.232Z,6.70
2019-01-11T23:18:18.642Z,7.10
2019-01-11T23:20:47.132Z,7.10
2019-01-11T23:23:15.544Z,6.80
2019-01-11T23:25:43.952Z,7.27
2019-01-11T23:28:12.363Z,7.63
2019-01-11T23:30:40.759Z,7.40
2019-01-11T23:33:09.224Z,7.03
2019-01-11T23:35:37.614Z,7.47
2019-01-11T23:38:06.074Z,7.33
2019-01-11T23:40:34.477Z,7.00
2019-01-11T23:43:02.865Z,7.80
2019-01-11T23:45:31.338Z,8.07
2019-01-11T23:47:59.819Z,8.10
2019-01-11T23:50:28.215Z,7.70
2019-01-11T23:52:56.619Z,6.60
2019-01-11T23:55:25.009Z,6.83
2019-01-11T23:57:53.427Z,5.80
